sensor_id;sensor_type;location;lat;lon;timestamp;P1;durP1;ratioP1;P2;durP2;ratioP2
22191;SDS011;11261;52.456;10.850;2022-07-06T00:01:17;1.52;;;0.75;;
22191;SDS011;11261;52.456;10.850;2022-07-06T00:03:46;1.05;;;0.70;;
22191;SDS011;11261;52.456;10.850;2022-07-06T00:06:20;1.67;;;0.70;;
22191;SDS011;11261;52.456;10.850;2022-07-06T00:08:50;1.38;;;0.65;;
22191;SDS011;11261;52.456;10.850;2022-07-06T00:11:18;1.48;;;0.63;;
22191;SDS011;11261;52.456;10.850;2022-07-06T00:13:46;1.52;;;0.75;;
22191;SDS011;11261;52.456;10.850;2022-07-06T00:16:15;1.45;;;0.70;;
22191;SDS011;11261;52.456;10.850;2022-07-06T00:18:43;2.42;;;0.73;;
22191;SDS011;11261;52.456;10.850;2022-07-06T00:21:11;1.48;;;0.70;;
22191;SDS011;11261;52.456;10.850;2022-07-06T00:23:40;1.77;;;0.80;;
22191;SDS011;11261;52.456;10.850;2022-07-06T00:26:09;1.00;;;0.70;;
22191;SDS011;11261;52.456;10.850;2022-07-06T00:28:38;2.50;;;0.70;;
22191;SDS011;11261;52.456;10.850;2022-07-06T00:31:06;1.63;;;0.90;;
22191;SDS011;11261;52.456;10.850;2022-07-06T00:33:34;1.35;;;0.73;;
22191;SDS011;11261;52.456;10.850;2022-07-06T00:36:03;1.73;;;0.70;;
22191;SDS011;11261;52.456;10.850;2022-07-06T00:38:31;4.18;;;0.60;;
22191;SDS011;11261;52.456;10.850;2022-07-06T00:40:59;1.33;;;0.70;;
22191;SDS011;11261;52.456;10.850;2022-07-06T00:43:29;4.20;;;0.98;;
22191;SDS011;11261;52.456;10.850;2022-07-06T00:46:14;0.93;;;0.60;;
22191;SDS011;11261;52.456;10.850;2022-07-06T00:48:43;1.17;;;0.68;;
22191;SDS011;11261;52.456;10.850;2022-07-06T00:51:11;1.27;;;0.70;;
22191;SDS011;11261;52.456;10.850;2022-07-06T00:53:41;1.52;;;0.65;;
22191;SDS011;11261;52.456;10.850;2022-07-06T00:56:10;1.88;;;0.85;;
22191;SDS011;11261;52.456;10.850;2022-07-06T00:58:39;3.45;;;0.90;;
22191;SDS011;11261;52.456;10.850;2022-07-06T01:01:08;1.52;;;0.73;;
22191;SDS011;11261;52.456;10.850;2022-07-06T01:03:36;2.63;;;0.70;;
22191;SDS011;11261;52.456;10.850;2022-07-06T01:06:04;2.85;;;1.13;;
22191;SDS011;11261;52.456;10.850;2022-07-06T01:08:32;7.00;;;0.90;;
22191;SDS011;11261;52.456;10.850;2022-07-06T01:11:01;0.77;;;0.60;;
22191;SDS011;11261;52.456;10.850;2022-07-06T01:13:29;1.55;;;0.80;;
22191;SDS011;11261;52.456;10.850;2022-07-06T01:16:01;1.48;;;0.80;;
22191;SDS011;11261;52.456;10.850;2022-07-06T01:18:29;2.03;;;0.63;;
22191;SDS011;11261;52.456;10.850;2022-07-06T01:21:07;2.42;;;0.90;;
22191;SDS011;11261;52.456;10.850;2022-07-06T01:23:39;0.95;;;0.80;;
22191;SDS011;11261;52.456;10.850;2022-07-06T01:26:09;6.07;;;0.60;;
22191;SDS011;11261;52.456;10.850;2022-07-06T01:28:39;1.35;;;0.85;;
22191;SDS011;11261;52.456;10.850;2022-07-06T01:31:13;2.75;;;0.80;;
22191;SDS011;11261;52.456;10.850;2022-07-06T01:33:43;1.23;;;0.70;;
22191;SDS011;11261;52.456;10.850;2022-07-06T01:36:12;2.60;;;0.85;;
22191;SDS011;11261;52.456;10.850;2022-07-06T01:38:44;1.70;;;1.48;;
22191;SDS011;11261;52.456;10.850;2022-07-06T01:41:14;1.55;;;0.65;;
22191;SDS011;11261;52.456;10.850;2022-07-06T01:43:42;1.33;;;0.80;;
22191;SDS011;11261;52.456;10.850;2022-07-06T01:46:10;1.20;;;0.70;;
22191;SDS011;11261;52.456;10.850;2022-07-06T01:48:39;1.15;;;0.68;;
22191;SDS011;11261;52.456;10.850;2022-07-06T01:51:07;2.22;;;0.70;;
22191;SDS011;11261;52.456;10.850;2022-07-06T01:53:37;2.17;;;0.80;;
22191;SDS011;11261;52.456;10.850;2022-07-06T01:56:06;1.02;;;0.80;;
22191;SDS011;11261;52.456;10.850;2022-07-06T01:58:34;1.13;;;0.70;;
22191;SDS011;11261;52.456;10.850;2022-07-06T02:01:06;1.67;;;0.90;;
22191;SDS011;11261;52.456;10.850;2022-07-06T02:03:34;2.33;;;0.80;;
22191;SDS011;11261;52.456;10.850;2022-07-06T02:06:03;0.77;;;0.70;;
22191;SDS011;11261;52.456;10.850;2022-07-06T02:08:32;5.53;;;0.90;;
22191;SDS011;11261;52.456;10.850;2022-07-06T02:11:01;1.95;;;0.80;;
22191;SDS011;11261;52.456;10.850;2022-07-06T02:13:30;0.80;;;0.77;;
22191;SDS011;11261;52.456;10.850;2022-07-06T02:15:58;1.83;;;0.85;;
22191;SDS011;11261;52.456;10.850;2022-07-06T02:18:27;0.70;;;0.70;;
22191;SDS011;11261;52.456;10.850;2022-07-06T02:20:55;1.80;;;0.90;;
22191;SDS011;11261;52.456;10.850;2022-07-06T02:23:23;2.05;;;0.73;;
22191;SDS011;11261;52.456;10.850;2022-07-06T02:25:52;1.88;;;0.93;;
22191;SDS011;11261;52.456;10.850;2022-07-06T02:28:22;2.38;;;0.95;;
22191;SDS011;11261;52.456;10.850;2022-07-06T02:30:51;3.55;;;0.95;;
22191;SDS011;11261;52.456;10.850;2022-07-06T02:33:19;0.90;;;0.77;;
22191;SDS011;11261;52.456;10.850;2022-07-06T02:35:47;5.10;;;0.80;;
22191;SDS011;11261;52.456;10.850;2022-07-06T02:38:15;1.88;;;0.70;;
22191;SDS011;11261;52.456;10.850;2022-07-06T02:40:43;3.20;;;1.15;;
22191;SDS011;11261;52.456;10.850;2022-07-06T02:43:12;3.25;;;0.93;;
22191;SDS011;11261;52.456;10.850;2022-07-06T02:45:41;1.77;;;1.05;;
22191;SDS011;11261;52.456;10.850;2022-07-06T02:48:10;2.90;;;0.80;;
22191;SDS011;11261;52.456;10.850;2022-07-06T02:50:38;6.63;;;1.00;;
22191;SDS011;11261;52.456;10.850;2022-07-06T02:53:06;2.05;;;0.90;;
22191;SDS011;11261;52.456;10.850;2022-07-06T02:55:34;2.80;;;0.68;;
22191;SDS011;11261;52.456;10.850;2022-07-06T02:58:02;2.97;;;1.00;;
22191;SDS011;11261;52.456;10.850;2022-07-06T03:00:31;3.47;;;0.93;;
22191;SDS011;11261;52.456;10.850;2022-07-06T03:03:00;0.95;;;0.68;;
22191;SDS011;11261;52.456;10.850;2022-07-06T03:05:29;2.08;;;0.98;;
22191;SDS011;11261;52.456;10.850;2022-07-06T03:07:57;2.80;;;0.93;;
22191;SDS011;11261;52.456;10.850;2022-07-06T03:10:25;1.67;;;0.90;;
22191;SDS011;11261;52.456;10.850;2022-07-06T03:12:53;2.70;;;0.88;;
22191;SDS011;11261;52.456;10.850;2022-07-06T03:15:21;1.60;;;0.80;;
22191;SDS011;11261;52.456;10.850;2022-07-06T03:17:49;1.48;;;0.82;;
22191;SDS011;11261;52.456;10.850;2022-07-06T03:20:19;2.40;;;0.90;;
22191;SDS011;11261;52.456;10.850;2022-07-06T03:22:48;2.65;;;0.80;;
22191;SDS011;11261;52.456;10.850;2022-07-06T03:25:16;4.63;;;1.13;;
22191;SDS011;11261;52.456;10.850;2022-07-06T03:27:44;4.35;;;1.00;;
22191;SDS011;11261;52.456;10.850;2022-07-06T03:30:12;1.27;;;0.77;;
22191;SDS011;11261;52.456;10.850;2022-07-06T03:32:41;2.28;;;0.70;;
22191;SDS011;11261;52.456;10.850;2022-07-06T03:35:09;1.80;;;0.60;;
22191;SDS011;11261;52.456;10.850;2022-07-06T03:37:39;2.78;;;0.90;;
22191;SDS011;11261;52.456;10.850;2022-07-06T03:40:07;1.40;;;1.02;;
22191;SDS011;11261;52.456;10.850;2022-07-06T03:42:36;2.53;;;1.00;;
22191;SDS011;11261;52.456;10.850;2022-07-06T03:45:04;3.22;;;0.90;;
22191;SDS011;11261;52.456;10.850;2022-07-06T03:47:33;2.38;;;0.60;;
22191;SDS011;11261;52.456;10.850;2022-07-06T03:50:02;3.65;;;0.88;;
22191;SDS011;11261;52.456;10.850;2022-07-06T03:52:30;2.78;;;1.00;;
22191;SDS011;11261;52.456;10.850;2022-07-06T03:55:00;2.70;;;1.15;;
22191;SDS011;11261;52.456;10.850;2022-07-06T03:57:28;4.15;;;0.95;;
22191;SDS011;11261;52.456;10.850;2022-07-06T03:59:56;2.45;;;0.88;;
22191;SDS011;11261;52.456;10.850;2022-07-06T04:02:24;1.40;;;0.90;;
22191;SDS011;11261;52.456;10.850;2022-07-06T04:04:52;1.17;;;0.70;;
22191;SDS011;11261;52.456;10.850;2022-07-06T04:07:21;1.20;;;0.95;;
22191;SDS011;11261;52.456;10.850;2022-07-06T04:09:49;1.48;;;0.90;;
22191;SDS011;11261;52.456;10.850;2022-07-06T04:12:18;3.53;;;0.90;;
22191;SDS011;11261;52.456;10.850;2022-07-06T04:14:46;3.47;;;1.00;;
22191;SDS011;11261;52.456;10.850;2022-07-06T04:17:15;0.90;;;0.63;;
22191;SDS011;11261;52.456;10.850;2022-07-06T04:20:03;1.25;;;0.80;;
22191;SDS011;11261;52.456;10.850;2022-07-06T04:22:32;2.85;;;0.90;;
22191;SDS011;11261;52.456;10.850;2022-07-06T04:25:00;1.13;;;0.80;;
22191;SDS011;11261;52.456;10.850;2022-07-06T04:27:30;3.20;;;1.42;;
22191;SDS011;11261;52.456;10.850;2022-07-06T04:29:58;1.58;;;0.63;;
22191;SDS011;11261;52.456;10.850;2022-07-06T04:32:26;3.30;;;1.35;;
22191;SDS011;11261;52.456;10.850;2022-07-06T04:34:55;1.13;;;0.98;;
22191;SDS011;11261;52.456;10.850;2022-07-06T04:37:23;1.58;;;0.68;;
22191;SDS011;11261;52.456;10.850;2022-07-06T04:39:51;2.65;;;0.80;;
22191;SDS011;11261;52.456;10.850;2022-07-06T04:42:19;3.88;;;0.90;;
22191;SDS011;11261;52.456;10.850;2022-07-06T04:44:49;1.98;;;0.80;;
22191;SDS011;11261;52.456;10.850;2022-07-06T04:47:17;2.63;;;0.77;;
22191;SDS011;11261;52.456;10.850;2022-07-06T04:49:46;1.38;;;0.77;;
22191;SDS011;11261;52.456;10.850;2022-07-06T04:52:14;3.22;;;0.88;;
22191;SDS011;11261;52.456;10.850;2022-07-06T04:54:42;2.22;;;0.70;;
22191;SDS011;11261;52.456;10.850;2022-07-06T04:57:10;2.03;;;0.80;;
22191;SDS011;11261;52.456;10.850;2022-07-06T04:59:38;1.63;;;1.27;;
22191;SDS011;11261;52.456;10.850;2022-07-06T05:02:08;1.10;;;0.65;;
22191;SDS011;11261;52.456;10.850;2022-07-06T05:04:36;3.33;;;0.90;;
22191;SDS011;11261;52.456;10.850;2022-07-06T05:07:04;1.88;;;0.70;;
22191;SDS011;11261;52.456;10.850;2022-07-06T05:09:33;1.05;;;0.60;;
22191;SDS011;11261;52.456;10.850;2022-07-06T05:12:01;2.45;;;0.70;;
22191;SDS011;11261;52.456;10.850;2022-07-06T05:14:29;3.72;;;0.82;;
22191;SDS011;11261;52.456;10.850;2022-07-06T05:16:57;1.77;;;0.80;;
22191;SDS011;11261;52.456;10.850;2022-07-06T05:19:27;2.22;;;0.80;;
22191;SDS011;11261;52.456;10.850;2022-07-06T05:21:55;3.03;;;0.70;;
22191;SDS011;11261;52.456;10.850;2022-07-06T05:24:23;0.75;;;0.68;;
22191;SDS011;11261;52.456;10.850;2022-07-06T05:26:52;1.38;;;0.70;;
22191;SDS011;11261;52.456;10.850;2022-07-06T05:29:20;2.47;;;1.00;;
22191;SDS011;11261;52.456;10.850;2022-07-06T05:31:48;3.38;;;0.85;;
22191;SDS011;11261;52.456;10.850;2022-07-06T05:34:17;5.68;;;1.00;;
22191;SDS011;11261;52.456;10.850;2022-07-06T05:36:46;2.92;;;1.00;;
22191;SDS011;11261;52.456;10.850;2022-07-06T05:39:15;3.92;;;0.70;;
22191;SDS011;11261;52.456;10.850;2022-07-06T05:41:46;2.05;;;0.70;;
22191;SDS011;11261;52.456;10.850;2022-07-06T05:44:14;1.77;;;0.88;;
22191;SDS011;11261;52.456;10.850;2022-07-06T05:46:42;3.28;;;0.80;;
22191;SDS011;11261;52.456;10.850;2022-07-06T05:49:11;0.80;;;0.80;;
22191;SDS011;11261;52.456;10.850;2022-07-06T05:51:58;1.42;;;0.80;;
22191;SDS011;11261;52.456;10.850;2022-07-06T05:54:26;2.75;;;0.63;;
22191;SDS011;11261;52.456;10.850;2022-07-06T05:56:54;2.03;;;0.52;;
22191;SDS011;11261;52.456;10.850;2022-07-06T05:59:22;4.00;;;0.95;;
22191;SDS011;11261;52.456;10.850;2022-07-06T06:01:50;4.05;;;0.80;;
22191;SDS011;11261;52.456;10.850;2022-07-06T06:04:18;1.70;;;0.88;;
22191;SDS011;11261;52.456;10.850;2022-07-06T06:06:47;6.28;;;1.10;;
22191;SDS011;11261;52.456;10.850;2022-07-06T06:09:16;1.35;;;0.60;;
22191;SDS011;11261;52.456;10.850;2022-07-06T06:11:44;0.85;;;0.57;;
22191;SDS011;11261;52.456;10.850;2022-07-06T06:14:13;1.10;;;0.70;;
22191;SDS011;11261;52.456;10.850;2022-07-06T06:16:41;4.38;;;0.82;;
22191;SDS011;11261;52.456;10.850;2022-07-06T06:19:09;2.70;;;0.80;;
22191;SDS011;11261;52.456;10.850;2022-07-06T06:21:37;2.25;;;0.70;;
22191;SDS011;11261;52.456;10.850;2022-07-06T06:24:05;2.22;;;0.73;;
22191;SDS011;11261;52.456;10.850;2022-07-06T06:26:35;1.60;;;0.60;;
22191;SDS011;11261;52.456;10.850;2022-07-06T06:29:03;0.73;;;0.50;;
22191;SDS011;11261;52.456;10.850;2022-07-06T06:31:31;2.75;;;0.70;;
22191;SDS011;11261;52.456;10.850;2022-07-06T06:34:06;1.27;;;0.75;;
22191;SDS011;11261;52.456;10.850;2022-07-06T06:36:34;2.08;;;0.63;;
22191;SDS011;11261;52.456;10.850;2022-07-06T06:39:02;1.55;;;0.55;;
22191;SDS011;11261;52.456;10.850;2022-07-06T06:41:31;2.55;;;0.80;;
22191;SDS011;11261;52.456;10.850;2022-07-06T06:44:00;2.00;;;0.93;;
22191;SDS011;11261;52.456;10.850;2022-07-06T06:46:28;3.42;;;0.70;;
22191;SDS011;11261;52.456;10.850;2022-07-06T06:48:57;3.70;;;0.60;;
22191;SDS011;11261;52.456;10.850;2022-07-06T06:51:25;2.35;;;0.85;;
22191;SDS011;11261;52.456;10.850;2022-07-06T06:53:53;3.72;;;0.70;;
22191;SDS011;11261;52.456;10.850;2022-07-06T06:56:21;2.28;;;0.50;;
22191;SDS011;11261;52.456;10.850;2022-07-06T06:58:50;1.90;;;0.63;;
22191;SDS011;11261;52.456;10.850;2022-07-06T07:01:39;1.30;;;0.70;;
22191;SDS011;11261;52.456;10.850;2022-07-06T07:04:07;1.20;;;0.60;;
22191;SDS011;11261;52.456;10.850;2022-07-06T07:06:36;1.83;;;0.65;;
22191;SDS011;11261;52.456;10.850;2022-07-06T07:09:04;0.65;;;0.50;;
22191;SDS011;11261;52.456;10.850;2022-07-06T07:11:32;1.48;;;0.68;;
22191;SDS011;11261;52.456;10.850;2022-07-06T07:14:00;1.90;;;0.63;;
22191;SDS011;11261;52.456;10.850;2022-07-06T07:16:29;2.33;;;0.60;;
22191;SDS011;11261;52.456;10.850;2022-07-06T07:18:58;2.78;;;0.80;;
22191;SDS011;11261;52.456;10.850;2022-07-06T07:21:26;3.05;;;0.70;;
22191;SDS011;11261;52.456;10.850;2022-07-06T07:23:55;1.77;;;0.60;;
22191;SDS011;11261;52.456;10.850;2022-07-06T07:26:23;4.00;;;0.60;;
22191;SDS011;11261;52.456;10.850;2022-07-06T07:28:51;1.10;;;0.50;;
22191;SDS011;11261;52.456;10.850;2022-07-06T07:31:19;0.82;;;0.57;;
22191;SDS011;11261;52.456;10.850;2022-07-06T07:33:47;1.90;;;0.60;;
22191;SDS011;11261;52.456;10.850;2022-07-06T07:36:25;1.27;;;0.68;;
22191;SDS011;11261;52.456;10.850;2022-07-06T07:38:53;1.00;;;0.70;;
22191;SDS011;11261;52.456;10.850;2022-07-06T07:41:22;0.88;;;0.77;;
22191;SDS011;11261;52.456;10.850;2022-07-06T07:43:50;3.60;;;0.77;;
22191;SDS011;11261;52.456;10.850;2022-07-06T07:46:18;2.15;;;0.60;;
22191;SDS011;11261;52.456;10.850;2022-07-06T07:48:47;4.97;;;0.60;;
22191;SDS011;11261;52.456;10.850;2022-07-06T07:51:15;2.60;;;0.60;;
22191;SDS011;11261;52.456;10.850;2022-07-06T07:53:46;0.75;;;0.73;;
22191;SDS011;11261;52.456;10.850;2022-07-06T07:56:14;1.48;;;0.60;;
22191;SDS011;11261;52.456;10.850;2022-07-06T07:58:42;1.45;;;0.47;;
22191;SDS011;11261;52.456;10.850;2022-07-06T08:01:10;1.35;;;0.60;;
22191;SDS011;11261;52.456;10.850;2022-07-06T08:03:38;1.20;;;0.65;;
22191;SDS011;11261;52.456;10.850;2022-07-06T08:06:06;3.10;;;0.60;;
22191;SDS011;11261;52.456;10.850;2022-07-06T08:08:35;1.23;;;0.70;;
22191;SDS011;11261;52.456;10.850;2022-07-06T08:11:05;1.63;;;0.40;;
22191;SDS011;11261;52.456;10.850;2022-07-06T08:13:44;1.88;;;0.65;;
22191;SDS011;11261;52.456;10.850;2022-07-06T08:16:12;1.33;;;0.60;;
22191;SDS011;11261;52.456;10.850;2022-07-06T08:18:40;3.35;;;0.60;;
22191;SDS011;11261;52.456;10.850;2022-07-06T08:21:09;2.20;;;0.47;;
22191;SDS011;11261;52.456;10.850;2022-07-06T08:23:53;2.03;;;0.73;;
22191;SDS011;11261;52.456;10.850;2022-07-06T08:26:23;0.70;;;0.50;;
22191;SDS011;11261;52.456;10.850;2022-07-06T08:28:52;1.13;;;0.40;;
22191;SDS011;11261;52.456;10.850;2022-07-06T08:31:20;0.80;;;0.60;;
22191;SDS011;11261;52.456;10.850;2022-07-06T08:34:08;1.40;;;0.50;;
22191;SDS011;11261;52.456;10.850;2022-07-06T08:36:37;1.50;;;0.55;;
22191;SDS011;11261;52.456;10.850;2022-07-06T08:39:05;1.05;;;0.60;;
22191;SDS011;11261;52.456;10.850;2022-07-06T08:41:35;3.45;;;0.63;;
22191;SDS011;11261;52.456;10.850;2022-07-06T08:44:05;2.03;;;0.57;;
22191;SDS011;11261;52.456;10.850;2022-07-06T08:46:35;1.20;;;0.40;;
22191;SDS011;11261;52.456;10.850;2022-07-06T08:49:06;0.50;;;0.50;;
22191;SDS011;11261;52.456;10.850;2022-07-06T08:51:35;1.70;;;0.65;;
22191;SDS011;11261;52.456;10.850;2022-07-06T08:54:04;1.05;;;0.50;;
22191;SDS011;11261;52.456;10.850;2022-07-06T08:56:32;1.45;;;0.50;;
22191;SDS011;11261;52.456;10.850;2022-07-06T08:59:02;1.10;;;0.50;;
22191;SDS011;11261;52.456;10.850;2022-07-06T09:01:30;1.80;;;0.50;;
22191;SDS011;11261;52.456;10.850;2022-07-06T09:03:59;0.52;;;0.50;;
22191;SDS011;11261;52.456;10.850;2022-07-06T09:06:32;2.70;;;0.63;;
22191;SDS011;11261;52.456;10.850;2022-07-06T09:09:03;2.08;;;0.60;;
22191;SDS011;11261;52.456;10.850;2022-07-06T09:11:33;1.00;;;0.55;;
22191;SDS011;11261;52.456;10.850;2022-07-06T09:14:05;3.67;;;0.60;;
22191;SDS011;11261;52.456;10.850;2022-07-06T09:16:34;1.02;;;0.52;;
22191;SDS011;11261;52.456;10.850;2022-07-06T09:19:05;0.68;;;0.40;;
22191;SDS011;11261;52.456;10.850;2022-07-06T09:21:34;4.68;;;0.70;;
22191;SDS011;11261;52.456;10.850;2022-07-06T09:24:06;3.40;;;0.82;;
22191;SDS011;11261;52.456;10.850;2022-07-06T09:26:36;2.95;;;0.70;;
22191;SDS011;11261;52.456;10.850;2022-07-06T09:29:06;1.27;;;0.47;;
22191;SDS011;11261;52.456;10.850;2022-07-06T09:31:34;2.67;;;0.43;;
22191;SDS011;11261;52.456;10.850;2022-07-06T09:34:03;4.22;;;0.50;;
22191;SDS011;11261;52.456;10.850;2022-07-06T09:36:42;1.17;;;0.50;;
22191;SDS011;11261;52.456;10.850;2022-07-06T09:39:18;0.77;;;0.32;;
22191;SDS011;11261;52.456;10.850;2022-07-06T09:41:51;1.60;;;0.35;;
22191;SDS011;11261;52.456;10.850;2022-07-06T09:44:23;0.73;;;0.30;;
22191;SDS011;11261;52.456;10.850;2022-07-06T09:46:52;2.92;;;0.70;;
22191;SDS011;11261;52.456;10.850;2022-07-06T09:49:23;2.47;;;0.55;;
22191;SDS011;11261;52.456;10.850;2022-07-06T09:51:52;3.17;;;0.60;;
22191;SDS011;11261;52.456;10.850;2022-07-06T09:54:22;1.58;;;0.60;;
22191;SDS011;11261;52.456;10.850;2022-07-06T09:56:51;1.80;;;0.45;;
22191;SDS011;11261;52.456;10.850;2022-07-06T09:59:20;0.40;;;0.40;;
22191;SDS011;11261;52.456;10.850;2022-07-06T10:01:52;0.68;;;0.40;;
22191;SDS011;11261;52.456;10.850;2022-07-06T10:04:22;1.83;;;0.40;;
22191;SDS011;11261;52.456;10.850;2022-07-06T10:06:52;1.85;;;0.47;;
22191;SDS011;11261;52.456;10.850;2022-07-06T10:09:22;2.00;;;0.30;;
22191;SDS011;11261;52.456;10.850;2022-07-06T10:11:52;0.40;;;0.20;;
22191;SDS011;11261;52.456;10.850;2022-07-06T10:14:23;1.75;;;0.40;;
22191;SDS011;11261;52.456;10.850;2022-07-06T10:16:52;0.30;;;0.30;;
22191;SDS011;11261;52.456;10.850;2022-07-06T10:19:20;1.85;;;0.50;;
22191;SDS011;11261;52.456;10.850;2022-07-06T10:21:49;0.77;;;0.35;;
22191;SDS011;11261;52.456;10.850;2022-07-06T10:24:19;1.17;;;0.40;;
22191;SDS011;11261;52.456;10.850;2022-07-06T10:26:48;1.05;;;0.50;;
22191;SDS011;11261;52.456;10.850;2022-07-06T10:29:17;2.28;;;0.30;;
22191;SDS011;11261;52.456;10.850;2022-07-06T10:31:47;0.68;;;0.40;;
22191;SDS011;11261;52.456;10.850;2022-07-06T10:34:18;1.58;;;0.50;;
22191;SDS011;11261;52.456;10.850;2022-07-06T10:36:48;1.30;;;0.47;;
22191;SDS011;11261;52.456;10.850;2022-07-06T10:39:31;1.13;;;0.40;;
22191;SDS011;11261;52.456;10.850;2022-07-06T10:45:08;0.93;;;0.40;;
22191;SDS011;11261;52.456;10.850;2022-07-06T10:47:38;0.73;;;0.40;;
22191;SDS011;11261;52.456;10.850;2022-07-06T10:50:08;1.83;;;0.40;;
22191;SDS011;11261;52.456;10.850;2022-07-06T10:52:49;0.70;;;0.30;;
22191;SDS011;11261;52.456;10.850;2022-07-06T10:55:28;0.75;;;0.40;;
22191;SDS011;11261;52.456;10.850;2022-07-06T10:57:57;3.55;;;0.60;;
22191;SDS011;11261;52.456;10.850;2022-07-06T11:00:26;2.40;;;0.40;;
22191;SDS011;11261;52.456;10.850;2022-07-06T11:03:30;0.43;;;0.30;;
22191;SDS011;11261;52.456;10.850;2022-07-06T11:06:05;0.82;;;0.30;;
22191;SDS011;11261;52.456;10.850;2022-07-06T11:08:43;0.75;;;0.50;;
22191;SDS011;11261;52.456;10.850;2022-07-06T11:11:16;1.52;;;0.47;;
22191;SDS011;11261;52.456;10.850;2022-07-06T11:13:50;0.40;;;0.40;;
22191;SDS011;11261;52.456;10.850;2022-07-06T11:16:24;0.93;;;0.30;;
22191;SDS011;11261;52.456;10.850;2022-07-06T11:19:02;0.52;;;0.35;;
22191;SDS011;11261;52.456;10.850;2022-07-06T11:21:34;0.77;;;0.40;;
22191;SDS011;11261;52.456;10.850;2022-07-06T11:24:04;1.70;;;0.40;;
22191;SDS011;11261;52.456;10.850;2022-07-06T11:26:34;2.90;;;0.45;;
22191;SDS011;11261;52.456;10.850;2022-07-06T11:29:06;1.27;;;0.40;;
22191;SDS011;11261;52.456;10.850;2022-07-06T11:31:37;2.28;;;0.43;;
22191;SDS011;11261;52.456;10.850;2022-07-06T11:34:09;1.33;;;0.40;;
22191;SDS011;11261;52.456;10.850;2022-07-06T11:36:39;3.38;;;0.65;;
22191;SDS011;11261;52.456;10.850;2022-07-06T11:39:11;2.03;;;0.40;;
22191;SDS011;11261;52.456;10.850;2022-07-06T11:41:40;1.58;;;0.30;;
22191;SDS011;11261;52.456;10.850;2022-07-06T11:44:16;4.13;;;0.50;;
22191;SDS011;11261;52.456;10.850;2022-07-06T11:46:44;1.05;;;0.32;;
22191;SDS011;11261;52.456;10.850;2022-07-06T11:49:14;4.18;;;0.50;;
22191;SDS011;11261;52.456;10.850;2022-07-06T11:51:42;2.90;;;0.55;;
22191;SDS011;11261;52.456;10.850;2022-07-06T11:54:12;2.10;;;0.50;;
22191;SDS011;11261;52.456;10.850;2022-07-06T11:56:48;1.33;;;0.70;;
22191;SDS011;11261;52.456;10.850;2022-07-06T11:59:20;2.25;;;0.65;;
22191;SDS011;11261;52.456;10.850;2022-07-06T12:01:49;1.83;;;0.68;;
22191;SDS011;11261;52.456;10.850;2022-07-06T12:04:26;0.82;;;0.35;;
22191;SDS011;11261;52.456;10.850;2022-07-06T12:06:55;1.98;;;0.55;;
22191;SDS011;11261;52.456;10.850;2022-07-06T12:09:26;0.65;;;0.40;;
22191;SDS011;11261;52.456;10.850;2022-07-06T12:11:57;2.45;;;0.50;;
22191;SDS011;11261;52.456;10.850;2022-07-06T12:14:28;1.40;;;0.40;;
22191;SDS011;11261;52.456;10.850;2022-07-06T12:17:02;1.92;;;0.40;;
22191;SDS011;11261;52.456;10.850;2022-07-06T12:19:33;1.77;;;0.40;;
22191;SDS011;11261;52.456;10.850;2022-07-06T12:22:01;0.60;;;0.50;;
22191;SDS011;11261;52.456;10.850;2022-07-06T12:24:31;2.58;;;0.47;;
22191;SDS011;11261;52.456;10.850;2022-07-06T12:27:09;2.83;;;0.60;;
22191;SDS011;11261;52.456;10.850;2022-07-06T12:29:39;1.58;;;0.40;;
22191;SDS011;11261;52.456;10.850;2022-07-06T12:32:13;0.85;;;0.30;;
22191;SDS011;11261;52.456;10.850;2022-07-06T12:34:43;0.65;;;0.28;;
22191;SDS011;11261;52.456;10.850;2022-07-06T12:37:12;0.43;;;0.40;;
22191;SDS011;11261;52.456;10.850;2022-07-06T12:39:42;2.08;;;0.40;;
22191;SDS011;11261;52.456;10.850;2022-07-06T12:42:13;5.43;;;0.40;;
22191;SDS011;11261;52.456;10.850;2022-07-06T12:44:45;0.52;;;0.40;;
22191;SDS011;11261;52.456;10.850;2022-07-06T12:47:16;0.43;;;0.38;;
22191;SDS011;11261;52.456;10.850;2022-07-06T12:49:52;2.45;;;0.50;;
22191;SDS011;11261;52.456;10.850;2022-07-06T12:52:32;1.65;;;0.57;;
22191;SDS011;11261;52.456;10.850;2022-07-06T12:55:00;0.70;;;0.43;;
22191;SDS011;11261;52.456;10.850;2022-07-06T12:57:42;1.08;;;0.50;;
22191;SDS011;11261;52.456;10.850;2022-07-06T13:00:11;0.47;;;0.30;;
22191;SDS011;11261;52.456;10.850;2022-07-06T13:02:43;2.30;;;0.50;;
22191;SDS011;11261;52.456;10.850;2022-07-06T13:05:33;0.52;;;0.28;;
22191;SDS011;11261;52.456;10.850;2022-07-06T13:08:02;0.45;;;0.40;;
22191;SDS011;11261;52.456;10.850;2022-07-06T13:10:30;1.73;;;0.35;;
22191;SDS011;11261;52.456;10.850;2022-07-06T13:13:00;0.90;;;0.43;;
22191;SDS011;11261;52.456;10.850;2022-07-06T13:15:28;1.15;;;0.40;;
22191;SDS011;11261;52.456;10.850;2022-07-06T13:17:56;2.20;;;0.50;;
22191;SDS011;11261;52.456;10.850;2022-07-06T13:20:24;4.18;;;0.38;;
22191;SDS011;11261;52.456;10.850;2022-07-06T13:22:53;0.57;;;0.35;;
22191;SDS011;11261;52.456;10.850;2022-07-06T13:25:22;2.67;;;0.45;;
22191;SDS011;11261;52.456;10.850;2022-07-06T13:27:50;1.38;;;0.40;;
22191;SDS011;11261;52.456;10.850;2022-07-06T13:30:18;0.82;;;0.40;;
22191;SDS011;11261;52.456;10.850;2022-07-06T13:32:46;0.57;;;0.32;;
22191;SDS011;11261;52.456;10.850;2022-07-06T13:35:14;1.00;;;0.40;;
22191;SDS011;11261;52.456;10.850;2022-07-06T13:37:44;0.80;;;0.40;;
22191;SDS011;11261;52.456;10.850;2022-07-06T13:40:14;1.80;;;0.47;;
22191;SDS011;11261;52.456;10.850;2022-07-06T13:42:42;1.25;;;0.50;;
22191;SDS011;11261;52.456;10.850;2022-07-06T13:45:12;0.65;;;0.40;;
22191;SDS011;11261;52.456;10.850;2022-07-06T13:47:40;1.65;;;0.35;;
22191;SDS011;11261;52.456;10.850;2022-07-06T13:50:08;2.33;;;0.40;;
22191;SDS011;11261;52.456;10.850;2022-07-06T13:52:37;1.02;;;0.30;;
22191;SDS011;11261;52.456;10.850;2022-07-06T13:55:06;1.50;;;0.40;;
22191;SDS011;11261;52.456;10.850;2022-07-06T13:57:37;0.40;;;0.40;;
22191;SDS011;11261;52.456;10.850;2022-07-06T14:00:08;1.42;;;0.40;;
22191;SDS011;11261;52.456;10.850;2022-07-06T14:02:38;0.63;;;0.35;;
22191;SDS011;11261;52.456;10.850;2022-07-06T14:05:06;2.28;;;0.40;;
22191;SDS011;11261;52.456;10.850;2022-07-06T14:07:35;1.85;;;0.68;;
22191;SDS011;11261;52.456;10.850;2022-07-06T14:10:03;1.17;;;0.40;;
22191;SDS011;11261;52.456;10.850;2022-07-06T14:12:32;0.55;;;0.30;;
22191;SDS011;11261;52.456;10.850;2022-07-06T14:15:02;1.15;;;0.75;;
22191;SDS011;11261;52.456;10.850;2022-07-06T14:17:31;2.40;;;0.40;;
22191;SDS011;11261;52.456;10.850;2022-07-06T14:19:59;0.38;;;0.30;;
22191;SDS011;11261;52.456;10.850;2022-07-06T14:22:27;0.68;;;0.40;;
22191;SDS011;11261;52.456;10.850;2022-07-06T14:24:55;4.38;;;0.40;;
22191;SDS011;11261;52.456;10.850;2022-07-06T14:27:23;1.17;;;0.30;;
22191;SDS011;11261;52.456;10.850;2022-07-06T14:29:52;2.20;;;0.30;;
22191;SDS011;11261;52.456;10.850;2022-07-06T14:32:22;3.35;;;0.47;;
22191;SDS011;11261;52.456;10.850;2022-07-06T14:34:50;0.35;;;0.30;;
22191;SDS011;11261;52.456;10.850;2022-07-06T14:37:18;1.02;;;0.45;;
22191;SDS011;11261;52.456;10.850;2022-07-06T14:39:47;0.65;;;0.40;;
22191;SDS011;11261;52.456;10.850;2022-07-06T14:42:15;2.45;;;0.40;;
22191;SDS011;11261;52.456;10.850;2022-07-06T14:44:43;0.95;;;0.40;;
22191;SDS011;11261;52.456;10.850;2022-07-06T14:47:11;0.95;;;0.50;;
22191;SDS011;11261;52.456;10.850;2022-07-06T14:49:41;1.50;;;0.60;;
22191;SDS011;11261;52.456;10.850;2022-07-06T14:52:09;3.05;;;0.50;;